Terminal Aerodrome Forecast
Issued by NWS

Home | Current Version | Previous Version | Text Only | Print | Product List | Glossary On
Versions: 1 2 3 4 5 6 7 8 9 10 11 12 13 14 15 16 17 18 19 20 21 22 23 24 25 26 27 28 29 30 31 32 33 34 35 36 37 38 39 40
884
FTUS45 KBOU 261234 AAA
TAFBJC
TAF AMD
KBJC 261234Z 2613/2712 25004KT P6SM BKN050 BKN100
     FM261500 07009KT P6SM BKN060 OVC100
     FM261800 04010KT P6SM -TSRA BKN050CB OVC090
      TEMPO 2619/2621 VRB20G30KT 3SM +TSRAGS BKN030CB
     FM262200 36011KT P6SM -SHRA SCT040 OVC070
      TEMPO 2622/2701 TSRA OVC030CB
     FM270200 33011KT P6SM -RA BKN010 OVC020=

USA.gov is the U.S. government's official web portal to all federal, state and local government web resources and services.